Time;durP1;ratioP1;P1;durP2;ratioP2;P2;SDS_P1;SDS_P2;PMS_P1;PMS_P2;Temp;Humidity;BMP_temperature;BMP_pressure;BME280_temperature;BME280_humidity;BME280_pressure;Samples;Min_cycle;Max_cycle;Signal;HPM_P1;HPM_P2
2021/08/27 00:01:28;;;;;;;3.67;1.50;;;14.80;99.90;;;;;;5033632;28;20278;-74
2021/08/27 00:03:56;;;;;;;4.87;1.80;;;14.80;99.90;;;;;;5030985;28;20625;-74
2021/08/27 00:06:23;;;;;;;6.43;1.80;;;14.90;99.90;;;;;;5031024;28;20657;-74
2021/08/27 00:08:50;;;;;;;4.70;2.03;;;14.90;99.90;;;;;;5030320;28;20227;-74
2021/08/27 00:11:17;;;;;;;4.83;2.00;;;14.90;99.90;;;;;;5044308;28;20664;-74
2021/08/27 00:13:45;;;;;;;6.30;2.00;;;14.90;99.90;;;;;;5030544;28;20207;-74
2021/08/27 00:16:12;;;;;;;5.60;2.20;;;14.90;99.90;;;;;;5017191;28;20222;-74
2021/08/27 00:18:39;;;;;;;2.83;1.50;;;14.80;99.90;;;;;;5030388;28;20298;-74
2021/08/27 00:21:07;;;;;;;5.20;1.77;;;14.80;99.90;;;;;;5033421;28;20204;-74
2021/08/27 00:23:35;;;;;;;3.37;1.73;;;14.70;99.90;;;;;;5030444;28;20203;-74
2021/08/27 00:26:01;;;;;;;5.50;2.00;;;14.70;99.90;;;;;;5030568;28;20209;-74
2021/08/27 00:28:28;;;;;;;3.80;2.03;;;14.70;99.90;;;;;;5030081;28;20231;-74
2021/08/27 00:30:57;;;;;;;5.30;2.17;;;14.60;99.90;;;;;;5030720;28;20314;-73
2021/08/27 00:33:24;;;;;;;4.70;1.83;;;14.60;99.90;;;;;;5030150;28;20206;-74
2021/08/27 00:35:51;;;;;;;5.07;1.90;;;14.60;99.90;;;;;;5029936;28;20203;-74
2021/08/27 00:38:20;;;;;;;7.60;2.10;;;14.60;99.90;;;;;;5029259;28;20290;-74
2021/08/27 00:40:47;;;;;;;3.40;1.80;;;14.60;99.90;;;;;;5030397;28;20291;-74
2021/08/27 00:43:14;;;;;;;7.53;2.27;;;14.60;99.90;;;;;;5033718;28;20213;-74
2021/08/27 00:45:41;;;;;;;5.30;2.43;;;14.60;99.90;;;;;;5034753;28;20662;-74
2021/08/27 00:48:08;;;;;;;7.30;1.97;;;14.60;99.90;;;;;;5034131;28;20574;-74
2021/08/27 00:50:35;;;;;;;4.93;1.87;;;14.50;99.90;;;;;;5034150;28;20578;-73
2021/08/27 00:53:02;;;;;;;7.17;2.27;;;14.50;99.90;;;;;;5033542;28;20219;-74
2021/08/27 00:55:31;;;;;;;3.80;2.00;;;14.60;99.90;;;;;;5043530;28;20211;-73
2021/08/27 00:57:58;;;;;;;5.23;1.87;;;14.50;99.90;;;;;;5034578;28;20552;-73
2021/08/27 01:00:25;;;;;;;3.87;1.93;;;14.50;99.90;;;;;;5033005;28;20210;-73
2021/08/27 01:02:53;;;;;;;4.77;1.77;;;14.50;99.90;;;;;;5034387;28;20203;-74
2021/08/27 01:05:21;;;;;;;5.53;2.00;;;14.40;99.90;;;;;;5043992;28;20217;-73
2021/08/27 01:07:52;;;;;;;7.07;2.47;;;14.50;99.90;;;;;;5036198;28;20204;-74
2021/08/27 01:10:25;;;;;;;3.00;1.80;;;14.50;99.90;;;;;;5033345;28;20211;-73
2021/08/27 01:13:06;;;;;;;8.87;2.33;;;14.40;99.90;;;;;;5034468;28;20224;-73
2021/08/27 01:15:39;;;;;;;4.40;1.57;;;14.40;99.90;;;;;;5033995;28;20207;-73
2021/08/27 01:18:26;;;;;;;8.80;3.20;;;14.50;99.90;;;;;;5033018;28;20195;-73
2021/08/27 01:21:23;;;;;;;3.73;1.80;;;14.40;99.90;;;;;;5017260;28;20211;-73
2021/08/27 01:23:55;;;;;;;4.70;2.10;;;14.40;99.90;;;;;;5029777;28;20207;-73
2021/08/27 01:26:26;;;;;;;7.30;2.17;;;14.40;99.90;;;;;;5033633;28;20212;-78
2021/08/27 01:28:56;;;;;;;4.60;1.93;;;14.30;99.90;;;;;;5031364;28;20205;-78
2021/08/27 01:31:32;;;;;;;3.53;2.30;;;14.40;99.90;;;;;;5028571;28;20246;-78
2021/08/27 01:34:11;;;;;;;6.13;1.97;;;14.30;99.90;;;;;;5038441;28;20214;-79
2021/08/27 01:36:41;;;;;;;4.77;1.97;;;14.30;99.90;;;;;;5031617;28;20200;-79
2021/08/27 01:39:11;;;;;;;5.33;2.20;;;14.30;99.90;;;;;;5029975;28;20678;-79
2021/08/27 01:41:41;;;;;;;4.97;2.03;;;14.30;99.90;;;;;;5039648;28;20957;-78
2021/08/27 01:44:11;;;;;;;4.93;2.17;;;14.30;99.90;;;;;;5049852;28;20199;-79
2021/08/27 01:46:42;;;;;;;3.43;2.00;;;14.20;99.90;;;;;;5032754;28;20239;-78
2021/08/27 01:49:10;;;;;;;6.73;2.07;;;14.20;99.90;;;;;;5027889;28;20207;-78
2021/08/27 01:51:37;;;;;;;6.40;2.23;;;14.20;99.90;;;;;;5034420;28;20607;-78
2021/08/27 01:54:06;;;;;;;3.53;1.80;;;14.20;99.90;;;;;;5036697;28;20195;-79
2021/08/27 01:56:36;;;;;;;4.83;2.40;;;14.20;99.90;;;;;;5029404;28;20204;-78
2021/08/27 01:59:03;;;;;;;3.87;2.00;;;14.20;99.90;;;;;;5030515;28;20200;-79
2021/08/27 02:01:32;;;;;;;5.53;2.03;;;14.20;99.90;;;;;;5032181;28;20222;-78
2021/08/27 02:04:04;;;;;;;4.23;1.77;;;14.20;99.90;;;;;;5031765;28;20204;-78
2021/08/27 02:06:32;;;;;;;5.63;2.40;;;14.20;99.90;;;;;;5030694;28;20210;-79
2021/08/27 02:09:00;;;;;;;5.07;2.50;;;14.10;99.90;;;;;;5041415;28;20571;-78
2021/08/27 02:11:30;;;;;;;6.40;1.77;;;14.10;99.90;;;;;;5037010;28;20219;-79
2021/08/27 02:13:58;;;;;;;4.37;2.07;;;14.10;99.90;;;;;;5028275;28;20650;-78
2021/08/27 02:16:26;;;;;;;4.13;1.90;;;14.10;99.90;;;;;;5033375;28;20200;-79
2021/08/27 02:18:53;;;;;;;3.67;1.80;;;14.10;99.90;;;;;;5031501;28;20204;-77
2021/08/27 02:21:22;;;;;;;7.60;1.70;;;14.10;99.90;;;;;;5031457;28;20212;-77
2021/08/27 02:23:52;;;;;;;6.63;1.97;;;14.10;99.90;;;;;;5038196;28;20704;-78
2021/08/27 02:26:20;;;;;;;7.47;2.57;;;14.20;99.90;;;;;;5042704;28;20200;-78
2021/08/27 02:28:50;;;;;;;5.40;1.87;;;14.10;99.90;;;;;;5037147;28;20208;-77
2021/08/27 02:31:17;;;;;;;4.33;1.90;;;14.10;99.90;;;;;;5032610;28;20199;-77
2021/08/27 02:33:46;;;;;;;3.00;1.57;;;14.10;99.90;;;;;;5028730;28;20591;-78
2021/08/27 02:36:17;;;;;;;7.07;1.83;;;14.10;99.90;;;;;;5037887;28;20199;-78
2021/08/27 02:38:45;;;;;;;4.53;2.13;;;14.10;99.90;;;;;;5047161;28;20210;-78
2021/08/27 02:41:12;;;;;;;7.57;2.03;;;14.00;99.90;;;;;;5031087;28;20210;-77
2021/08/27 02:43:39;;;;;;;5.07;1.80;;;14.10;99.90;;;;;;5032576;28;20207;-78
2021/08/27 02:46:07;;;;;;;4.43;1.77;;;14.00;99.90;;;;;;5038623;28;20309;-78
2021/08/27 02:48:35;;;;;;;4.63;1.87;;;14.10;99.90;;;;;;5031640;28;20208;-78
2021/08/27 02:51:10;;;;;;;6.43;2.20;;;14.10;99.90;;;;;;5038653;28;20208;-78
2021/08/27 02:53:40;;;;;;;4.23;1.70;;;14.10;99.90;;;;;;5024718;28;20502;-78
2021/08/27 02:56:14;;;;;;;4.77;1.77;;;14.10;99.90;;;;;;5029943;28;20204;-78
2021/08/27 02:58:41;;;;;;;3.90;1.90;;;14.00;99.90;;;;;;5032815;28;20207;-78
2021/08/27 03:01:12;;;;;;;5.87;1.77;;;14.00;99.90;;;;;;5039091;28;20273;-78
2021/08/27 03:03:45;;;;;;;5.03;1.90;;;14.00;99.90;;;;;;5029059;28;20200;-78
2021/08/27 03:06:21;;;;;;;7.60;2.30;;;14.00;99.90;;;;;;5030614;28;20204;-78
2021/08/27 03:08:57;;;;;;;8.87;2.33;;;14.00;99.90;;;;;;5031260;28;20211;-78
2021/08/27 03:11:28;;;;;;;5.33;2.07;;;14.00;99.90;;;;;;5033966;28;20199;-78
2021/08/27 03:14:02;;;;;;;7.13;1.87;;;14.00;99.90;;;;;;5043894;28;20202;-78
2021/08/27 03:16:31;;;;;;;4.23;1.93;;;14.00;99.90;;;;;;5018999;28;20225;-78
2021/08/27 03:19:02;;;;;;;4.57;1.83;;;14.00;99.90;;;;;;5036114;28;20192;-78
2021/08/27 03:21:32;;;;;;;5.47;1.97;;;14.00;99.90;;;;;;5031867;28;20562;-78
2021/08/27 03:24:06;;;;;;;3.03;1.70;;;13.90;99.90;;;;;;5029996;28;20200;-77
2021/08/27 03:26:34;;;;;;;3.77;1.83;;;14.00;99.90;;;;;;5031103;28;20199;-77
2021/08/27 03:29:05;;;;;;;2.10;1.40;;;14.00;99.90;;;;;;5029909;28;20217;-79
2021/08/27 03:31:33;;;;;;;3.20;1.80;;;14.00;99.90;;;;;;5037222;28;20563;-78
2021/08/27 03:34:02;;;;;;;4.57;2.00;;;14.00;99.90;;;;;;5028289;28;20214;-78
2021/08/27 03:36:31;;;;;;;4.77;1.90;;;13.90;99.90;;;;;;5032897;28;20200;-78
2021/08/27 03:39:00;;;;;;;4.40;2.00;;;13.90;99.90;;;;;;5031665;28;20261;-78
2021/08/27 03:41:29;;;;;;;4.83;2.37;;;13.90;99.90;;;;;;5027066;28;20207;-78
2021/08/27 03:43:57;;;;;;;3.37;1.90;;;13.80;99.90;;;;;;5027837;28;20282;-78
2021/08/27 03:46:25;;;;;;;6.73;2.10;;;13.80;99.90;;;;;;5038073;28;20199;-78
2021/08/27 03:48:55;;;;;;;6.50;1.70;;;13.80;99.90;;;;;;5035951;28;20704;-78
2021/08/27 03:51:22;;;;;;;6.07;2.07;;;13.70;99.90;;;;;;5039803;28;20200;-78
2021/08/27 03:53:50;;;;;;;5.40;2.27;;;13.80;99.90;;;;;;5033938;28;20231;-77
2021/08/27 03:56:18;;;;;;;5.33;3.30;;;13.70;99.90;;;;;;5021254;28;20222;-78
2021/08/27 03:58:46;;;;;;;4.87;2.33;;;13.80;99.90;;;;;;5029557;28;20586;-78
2021/08/27 04:01:13;;;;;;;6.07;2.50;;;13.70;99.90;;;;;;5031084;28;20214;-78
2021/08/27 04:03:41;;;;;;;4.23;1.93;;;13.70;99.90;;;;;;5031622;28;20199;-77
2021/08/27 04:06:10;;;;;;;6.13;2.13;;;13.70;99.90;;;;;;5030794;28;20226;-78
2021/08/27 04:11:09;;;;;;;7.47;1.90;;;13.60;99.90;;;;;;5009016;28;20256;-76
2021/08/27 04:13:36;;;;;;;6.53;2.00;;;13.70;99.90;;;;;;5005456;28;20220;-76
2021/08/27 04:16:04;;;;;;;5.17;2.20;;;13.70;99.90;;;;;;5010378;28;20208;-76
2021/08/27 04:18:31;;;;;;;5.80;2.20;;;13.70;99.90;;;;;;5013654;28;20718;-76
2021/08/27 04:20:59;;;;;;;4.47;2.00;;;13.60;99.90;;;;;;4999248;28;20212;-75
2021/08/27 04:23:28;;;;;;;5.73;2.13;;;13.70;99.90;;;;;;5011938;28;20293;-75
2021/08/27 04:25:55;;;;;;;4.63;2.00;;;13.70;99.90;;;;;;5022086;28;20590;-75
2021/08/27 04:28:22;;;;;;;7.23;2.33;;;13.70;99.90;;;;;;5016868;28;20209;-76
2021/08/27 04:30:49;;;;;;;4.30;1.97;;;13.60;99.90;;;;;;5013457;28;20208;-75
2021/08/27 04:33:16;;;;;;;5.27;2.30;;;13.70;99.90;;;;;;5008735;28;20220;-75
2021/08/27 04:35:42;;;;;;;6.67;2.10;;;13.70;99.90;;;;;;5009437;28;20291;-75
2021/08/27 04:38:09;;;;;;;5.07;1.80;;;13.70;99.90;;;;;;5011669;28;20655;-76
2021/08/27 04:40:37;;;;;;;4.77;2.40;;;13.70;99.90;;;;;;5010057;28;20295;-76
2021/08/27 04:43:04;;;;;;;5.47;2.00;;;13.60;99.90;;;;;;5004887;28;20208;-76
2021/08/27 04:45:31;;;;;;;6.47;2.40;;;13.60;99.90;;;;;;4999667;28;20219;-75
2021/08/27 04:47:58;;;;;;;5.50;1.90;;;13.70;99.90;;;;;;5011173;28;20220;-75
2021/08/27 04:50:25;;;;;;;8.20;2.30;;;13.60;99.90;;;;;;5011213;28;20200;-75
2021/08/27 04:52:52;;;;;;;7.47;2.43;;;13.60;99.90;;;;;;5009183;28;20234;-75
2021/08/27 04:55:19;;;;;;;6.27;2.03;;;13.60;99.90;;;;;;5009650;28;20307;-76
2021/08/27 04:57:47;;;;;;;4.00;2.50;;;13.70;99.90;;;;;;5011459;28;20204;-76
2021/08/27 05:00:15;;;;;;;5.03;1.90;;;13.70;99.90;;;;;;5007402;28;20212;-76
2021/08/27 05:02:42;;;;;;;6.17;2.60;;;13.60;99.90;;;;;;5010217;28;20709;-76
2021/08/27 05:05:10;;;;;;;5.73;2.87;;;13.70;99.90;;;;;;5008739;28;20211;-75
2021/08/27 05:07:37;;;;;;;6.23;2.30;;;13.60;99.90;;;;;;5004282;28;20210;-75
2021/08/27 05:10:04;;;;;;;6.27;2.20;;;13.70;99.90;;;;;;5005054;28;20224;-75
2021/08/27 05:12:32;;;;;;;3.53;1.90;;;13.60;99.90;;;;;;5012778;28;20236;-75
2021/08/27 05:15:01;;;;;;;3.53;1.97;;;13.60;99.90;;;;;;5016822;28;20572;-75
2021/08/27 05:17:27;;;;;;;5.47;2.20;;;13.70;99.90;;;;;;5008547;28;20211;-75
2021/08/27 05:19:54;;;;;;;6.30;2.20;;;13.70;99.90;;;;;;5008397;28;20201;-75
2021/08/27 05:22:21;;;;;;;7.23;2.27;;;13.70;99.90;;;;;;5010805;28;20207;-75
2021/08/27 05:24:48;;;;;;;6.30;2.07;;;13.80;99.90;;;;;;5009650;28;20207;-75
2021/08/27 05:27:15;;;;;;;4.33;2.17;;;13.70;99.90;;;;;;5009014;28;20208;-76
2021/08/27 05:29:41;;;;;;;3.63;2.13;;;13.70;99.90;;;;;;5011553;28;20223;-75
2021/08/27 05:32:10;;;;;;;3.03;2.10;;;13.70;99.90;;;;;;5020739;28;20234;-75
2021/08/27 05:34:37;;;;;;;4.37;2.03;;;13.80;99.90;;;;;;5012813;28;20210;-75
2021/08/27 05:37:06;;;;;;;3.57;2.20;;;13.80;99.90;;;;;;5013427;28;20214;-75
2021/08/27 05:39:33;;;;;;;6.73;2.30;;;13.80;99.90;;;;;;5013139;28;20210;-75
2021/08/27 05:42:01;;;;;;;7.17;2.13;;;13.90;99.90;;;;;;5014198;28;20570;-75
2021/08/27 05:44:28;;;;;;;4.33;2.03;;;13.90;99.90;;;;;;5015574;28;20203;-76
2021/08/27 05:46:57;;;;;;;4.67;2.63;;;13.90;99.90;;;;;;5013505;28;20204;-75
2021/08/27 05:49:26;;;;;;;4.20;1.90;;;13.90;99.90;;;;;;5012763;28;20204;-76
2021/08/27 05:51:53;;;;;;;5.67;2.00;;;14.00;99.90;;;;;;5013973;28;20206;-76
2021/08/27 05:54:20;;;;;;;7.47;2.27;;;14.00;99.90;;;;;;5013164;28;20227;-75
2021/08/27 05:56:46;;;;;;;3.93;2.10;;;13.90;99.90;;;;;;5013666;28;20658;-75
2021/08/27 05:59:14;;;;;;;3.43;1.97;;;14.00;99.90;;;;;;5012059;28;20291;-75
2021/08/27 06:01:41;;;;;;;5.00;3.13;;;14.00;99.90;;;;;;5001038;28;20207;-75
2021/08/27 06:04:08;;;;;;;6.67;2.47;;;14.10;99.90;;;;;;5012013;28;20673;-75
2021/08/27 06:06:36;;;;;;;8.00;2.43;;;14.10;99.90;;;;;;5013747;28;20204;-76
2021/08/27 06:09:05;;;;;;;9.67;2.83;;;14.10;99.90;;;;;;5001713;28;20212;-75
2021/08/27 06:11:35;;;;;;;6.37;2.53;;;14.20;99.90;;;;;;5009115;28;20635;-76
2021/08/27 06:14:02;;;;;;;6.43;2.63;;;14.20;99.90;;;;;;5006735;28;20232;-75
2021/08/27 06:16:29;;;;;;;5.07;2.50;;;14.20;99.90;;;;;;5011084;28;20413;-75
2021/08/27 06:18:56;;;;;;;6.97;2.97;;;14.20;99.90;;;;;;5009322;28;20236;-76
2021/08/27 06:21:23;;;;;;;3.63;2.40;;;14.30;99.90;;;;;;5011562;28;20196;-75
2021/08/27 06:23:52;;;;;;;8.47;2.53;;;14.40;99.90;;;;;;5009670;28;20235;-75
2021/08/27 06:26:19;;;;;;;7.43;2.43;;;14.30;99.90;;;;;;5007330;28;20208;-76
2021/08/27 06:28:46;;;;;;;5.33;2.20;;;14.30;99.90;;;;;;5008918;28;20208;-76
2021/08/27 06:31:13;;;;;;;6.40;2.27;;;14.30;99.90;;;;;;5013851;28;20572;-76
2021/08/27 06:33:40;;;;;;;5.10;2.63;;;14.30;99.90;;;;;;5018907;28;20224;-75
2021/08/27 06:36:07;;;;;;;9.27;2.90;;;14.30;99.90;;;;;;5017379;28;20200;-75
2021/08/27 06:38:33;;;;;;;7.37;2.40;;;14.30;99.90;;;;;;5010493;28;20659;-76
2021/08/27 06:41:03;;;;;;;5.53;2.70;;;14.40;99.90;;;;;;5004422;28;20201;-75
2021/08/27 06:43:32;;;;;;;5.63;2.30;;;14.40;99.90;;;;;;5004374;28;20193;-75
2021/08/27 06:46:01;;;;;;;6.83;2.20;;;14.50;99.90;;;;;;5011412;28;20330;-75
2021/08/27 06:48:28;;;;;;;7.37;2.77;;;14.50;99.90;;;;;;5010209;28;20769;-76
2021/08/27 06:50:55;;;;;;;3.93;2.40;;;14.50;99.90;;;;;;5011047;28;20204;-76
2021/08/27 06:53:22;;;;;;;2.83;2.30;;;14.50;99.90;;;;;;5005588;28;20693;-76
2021/08/27 06:55:49;;;;;;;6.03;2.67;;;14.50;99.90;;;;;;5005347;28;20577;-76
2021/08/27 06:58:18;;;;;;;6.90;2.40;;;14.60;99.90;;;;;;5011170;28;20211;-75
2021/08/27 07:00:45;;;;;;;5.50;2.50;;;14.60;99.90;;;;;;5008652;28;20203;-76
2021/08/27 07:03:12;;;;;;;4.77;2.30;;;14.60;99.90;;;;;;5010842;28;20192;-75
2021/08/27 07:05:38;;;;;;;3.53;2.30;;;14.50;99.90;;;;;;5011688;28;20297;-75
2021/08/27 07:08:06;;;;;;;5.57;2.10;;;14.50;99.90;;;;;;5012851;28;20209;-76
2021/08/27 07:10:33;;;;;;;5.47;2.03;;;14.50;99.90;;;;;;5003965;28;20216;-75
2021/08/27 07:13:00;;;;;;;7.10;2.70;;;14.50;99.90;;;;;;5015543;28;20209;-75
2021/08/27 07:15:28;;;;;;;6.47;2.43;;;14.50;99.90;;;;;;5011580;28;20295;-75
2021/08/27 07:17:56;;;;;;;6.33;2.60;;;14.50;99.90;;;;;;5016208;28;20212;-76
2021/08/27 07:20:24;;;;;;;5.03;2.70;;;14.60;99.90;;;;;;5012325;28;20643;-76
2021/08/27 07:22:51;;;;;;;7.30;2.70;;;14.60;99.90;;;;;;5015499;28;20201;-75
2021/08/27 07:25:17;;;;;;;3.77;2.40;;;14.60;99.90;;;;;;5006274;28;20212;-76
2021/08/27 07:27:44;;;;;;;5.30;2.47;;;14.70;99.90;;;;;;5013635;28;20710;-75
2021/08/27 07:30:12;;;;;;;5.97;2.63;;;14.70;99.90;;;;;;5012234;28;20204;-75
2021/08/27 07:32:40;;;;;;;8.23;2.90;;;14.70;99.90;;;;;;5009114;28;20210;-76
2021/08/27 07:35:09;;;;;;;8.13;3.27;;;14.60;99.90;;;;;;5011197;28;20715;-76
2021/08/27 07:37:38;;;;;;;8.50;2.70;;;14.50;99.90;;;;;;5008103;28;20211;-75
2021/08/27 07:40:07;;;;;;;4.57;2.87;;;14.60;99.90;;;;;;4997047;28;20227;-75
2021/08/27 07:42:34;;;;;;;5.97;2.80;;;14.70;99.90;;;;;;4998074;28;20563;-75
2021/08/27 07:45:01;;;;;;;5.07;3.53;;;14.70;99.90;;;;;;4997987;28;20196;-75
2021/08/27 07:47:28;;;;;;;4.60;3.30;;;14.70;99.90;;;;;;5000576;28;20211;-76
2021/08/27 07:49:56;;;;;;;5.97;3.00;;;14.70;99.90;;;;;;4995442;28;20211;-76
2021/08/27 07:52:24;;;;;;;6.43;2.93;;;14.70;99.90;;;;;;4995726;28;20209;-76
2021/08/27 07:54:50;;;;;;;5.40;3.37;;;14.70;99.90;;;;;;5002163;28;20505;-76
2021/08/27 07:57:17;;;;;;;7.77;3.30;;;14.70;99.90;;;;;;5001003;28;20611;-76
2021/08/27 07:59:44;;;;;;;5.93;3.67;;;14.70;99.90;;;;;;4998783;28;20666;-76
2021/08/27 08:02:14;;;;;;;6.23;3.23;;;14.50;99.90;;;;;;5004838;28;20200;-77
2021/08/27 08:04:41;;;;;;;6.30;3.67;;;14.50;99.90;;;;;;5002394;28;20580;-77
2021/08/27 08:07:09;;;;;;;6.87;3.27;;;14.40;99.90;;;;;;5003191;28;20207;-77
2021/08/27 08:09:36;;;;;;;6.70;3.95;;;14.30;99.90;;;;;;5002857;28;20220;-77
2021/08/27 08:12:03;;;;;;;8.03;4.60;;;14.20;99.90;;;;;;5004952;28;20541;-77
2021/08/27 08:14:30;;;;;;;6.07;3.40;;;14.00;99.90;;;;;;5004521;28;20247;-77
2021/08/27 08:16:57;;;;;;;7.30;3.87;;;14.00;99.90;;;;;;4992951;28;20204;-77
2021/08/27 08:19:23;;;;;;;5.53;4.20;;;13.90;99.90;;;;;;5005016;28;20571;-77
2021/08/27 08:21:50;;;;;;;5.03;3.63;;;13.90;99.90;;;;;;5008725;28;20217;-77
2021/08/27 08:24:19;;;;;;;7.07;3.70;;;13.90;99.90;;;;;;5005758;28;20201;-77
2021/08/27 08:26:45;;;;;;;9.17;4.30;;;13.90;99.90;;;;;;5009966;28;20200;-77
2021/08/27 08:29:12;;;;;;;6.70;3.70;;;13.90;99.90;;;;;;5005289;28;20196;-77
2021/08/27 08:31:39;;;;;;;6.63;4.43;;;13.90;99.90;;;;;;5006048;28;20200;-78
2021/08/27 08:34:06;;;;;;;7.20;3.90;;;13.90;99.90;;;;;;5004379;28;20777;-78
2021/08/27 08:36:33;;;;;;;6.67;4.37;;;13.90;99.90;;;;;;5006912;28;20218;-78
2021/08/27 08:39:00;;;;;;;7.33;4.27;;;13.90;99.90;;;;;;5009008;28;20689;-77
2021/08/27 08:41:28;;;;;;;6.50;3.87;;;14.00;99.90;;;;;;5009694;28;20207;-77
2021/08/27 08:43:55;;;;;;;9.77;4.33;;;14.00;99.90;;;;;;5008339;28;20222;-77
2021/08/27 08:46:23;;;;;;;8.97;4.13;;;14.00;99.90;;;;;;5008458;28;20210;-77
2021/08/27 08:48:52;;;;;;;6.07;4.07;;;14.10;99.90;;;;;;5008476;28;20658;-77
2021/08/27 08:51:23;;;;;;;6.53;4.13;;;14.00;99.90;;;;;;5005929;28;20205;-77
2021/08/27 08:53:50;;;;;;;6.27;4.17;;;14.10;99.90;;;;;;5006422;28;20232;-77
2021/08/27 08:56:20;;;;;;;8.67;5.00;;;14.20;99.90;;;;;;5005698;28;20205;-76
2021/08/27 08:58:48;;;;;;;6.03;4.40;;;14.30;99.90;;;;;;5006951;28;20212;-76
2021/08/27 09:01:17;;;;;;;6.93;4.30;;;14.20;99.90;;;;;;5007507;28;20247;-76
2021/08/27 09:03:45;;;;;;;7.00;4.70;;;14.30;99.90;;;;;;5015262;28;20205;-76
2021/08/27 09:06:13;;;;;;;9.00;4.83;;;14.30;99.90;;;;;;5012273;28;20584;-76
2021/08/27 09:08:45;;;;;;;12.00;5.00;;;14.30;99.90;;;;;;5006843;28;20216;-75
2021/08/27 09:11:18;;;;;;;8.97;4.73;;;14.20;99.90;;;;;;5007606;28;20208;-76
2021/08/27 09:13:49;;;;;;;7.33;4.77;;;14.20;99.90;;;;;;5004089;28;20315;-76
2021/08/27 09:16:16;;;;;;;7.73;4.40;;;14.10;99.90;;;;;;5008755;28;20209;-75
2021/08/27 09:18:44;;;;;;;6.53;4.20;;;14.20;99.90;;;;;;5005248;28;20236;-75
2021/08/27 09:21:35;;;;;;;5.83;4.20;;;14.20;99.90;;;;;;4999292;28;20212;-77
2021/08/27 09:24:17;;;;;;;6.03;4.70;;;14.20;99.90;;;;;;5006140;28;20259;-77
2021/08/27 09:26:46;;;;;;;5.20;4.13;;;14.30;99.90;;;;;;5002453;28;20211;-77
2021/08/27 09:29:32;;;;;;;8.33;4.40;;;14.40;99.90;;;;;;5002468;28;20663;-77
2021/08/27 09:31:59;;;;;;;7.23;4.83;;;14.60;99.90;;;;;;5004451;28;20698;-77
2021/08/27 09:34:28;;;;;;;6.37;4.20;;;14.60;99.90;;;;;;5005156;28;20685;-77
2021/08/27 09:36:57;;;;;;;6.00;3.70;;;14.70;99.90;;;;;;5004612;28;20213;-77
2021/08/27 09:39:33;;;;;;;4.60;3.80;;;14.70;99.90;;;;;;5012198;28;20200;-77
2021/08/27 09:42:00;;;;;;;6.13;3.73;;;14.70;99.90;;;;;;5008889;28;20212;-77
2021/08/27 09:44:29;;;;;;;3.63;2.80;;;14.70;99.90;;;;;;5002809;28;20211;-77
2021/08/27 09:47:00;;;;;;;2.53;2.30;;;14.70;99.90;;;;;;5005299;28;20673;-77
2021/08/27 09:49:28;;;;;;;3.97;2.30;;;14.60;99.90;;;;;;5002200;28;20216;-77
2021/08/27 09:51:56;;;;;;;3.33;2.57;;;14.50;99.90;;;;;;5010961;28;20730;-77
2021/08/27 09:54:25;;;;;;;2.60;2.40;;;14.50;99.90;;;;;;5007549;28;20227;-77
2021/08/27 09:56:55;;;;;;;4.83;2.37;;;14.50;99.90;;;;;;5009305;28;20709;-77
2021/08/27 09:59:37;;;;;;;3.93;3.00;;;14.50;99.90;;;;;;5004501;28;20219;-77
2021/08/27 10:02:05;;;;;;;3.00;2.47;;;14.60;99.90;;;;;;5006139;28;20262;-77
2021/08/27 10:04:33;;;;;;;3.37;2.90;;;14.60;99.90;;;;;;5009072;28;20216;-77
2021/08/27 10:07:00;;;;;;;3.43;2.90;;;14.70;99.90;;;;;;5009265;28;20204;-77
2021/08/27 10:09:43;;;;;;;3.27;2.97;;;14.70;99.90;;;;;;5044259;23;20230;-73
2021/08/27 10:12:11;;;;;;;3.77;3.37;;;14.70;99.90;;;;;;5039234;28;20596;-73
2021/08/27 10:14:40;;;;;;;3.57;3.00;;;14.60;99.90;;;;;;5037951;28;20645;-73
2021/08/27 10:17:08;;;;;;;4.57;3.03;;;14.60;99.90;;;;;;5042204;28;20203;-73
2021/08/27 10:19:35;;;;;;;11.43;7.63;;;14.70;99.90;;;;;;5038927;28;20473;-74
2021/08/27 10:22:02;;;;;;;3.57;2.80;;;14.80;99.90;;;;;;5041973;28;20203;-73
2021/08/27 10:24:28;;;;;;;4.65;3.20;;;14.70;99.90;;;;;;5038289;28;20575;-73
2021/08/27 10:26:55;;;;;;;3.93;2.90;;;15.00;99.90;;;;;;5037578;28;20214;-74
2021/08/27 10:29:22;;;;;;;2.75;2.55;;;15.00;99.90;;;;;;5042104;28;20214;-74
2021/08/27 10:31:52;;;;;;;4.87;3.00;;;15.20;99.90;;;;;;5039239;28;20213;-74
2021/08/27 10:34:39;;;;;;;5.40;2.70;;;15.30;99.90;;;;;;5038071;28;20220;-74
2021/08/27 10:37:05;;;;;;;4.17;2.63;;;15.40;99.90;;;;;;5035435;28;20207;-74
2021/08/27 10:39:41;;;;;;;3.90;2.80;;;15.60;99.90;;;;;;5040196;28;20219;-75
2021/08/27 10:42:09;;;;;;;3.77;2.77;;;15.80;99.90;;;;;;5040634;28;20202;-75
2021/08/27 10:44:50;;;;;;;2.73;2.53;;;15.90;99.90;;;;;;5038900;28;20200;-74
2021/08/27 10:47:19;;;;;;;2.78;2.40;;;15.90;99.90;;;;;;5037405;28;20211;-75
2021/08/27 10:50:00;;;;;;;5.45;2.90;;;15.60;99.90;;;;;;5039143;28;20211;-75
2021/08/27 10:52:37;;;;;;;4.23;3.17;;;15.70;99.90;;;;;;5039658;28;20203;-75
2021/08/27 10:55:13;;;;;;;3.67;3.00;;;15.70;99.90;;;;;;5038339;28;20224;-75
2021/08/27 10:58:03;;;;;;;6.70;3.85;;;15.70;99.90;;;;;;5040928;28;20268;-75
2021/08/27 11:00:40;;;;;;;4.22;3.03;;;15.70;99.90;;;;;;5035095;28;20210;-75
2021/08/27 11:03:10;;;;;;;5.82;3.00;;;15.80;99.90;;;;;;5039377;28;20195;-76
2021/08/27 11:05:40;;;;;;;4.97;2.90;;;15.70;99.90;;;;;;5038013;28;20568;-76
2021/08/27 11:08:10;;;;;;;6.43;3.10;;;15.90;99.90;;;;;;5042035;28;20719;-76
2021/08/27 11:10:39;;;;;;;3.90;2.78;;;16.00;99.90;;;;;;5042278;28;20807;-76
2021/08/27 11:13:14;;;;;;;6.88;2.63;;;16.20;99.90;;;;;;5035766;28;20203;-76
2021/08/27 11:15:43;;;;;;;2.80;2.58;;;16.30;99.90;;;;;;5039396;28;20227;-76
2021/08/27 11:18:22;;;;;;;3.05;2.05;;;16.00;99.90;;;;;;5038786;28;20203;-76
2021/08/27 11:20:50;;;;;;;4.03;2.40;;;16.00;99.90;;;;;;5041445;28;20207;-76
2021/08/27 11:23:18;;;;;;;3.85;2.20;;;15.80;99.90;;;;;;5042176;28;20230;-76
2021/08/27 11:26:00;;;;;;;4.55;2.33;;;15.80;99.90;;;;;;5043006;28;20568;-76
2021/08/27 11:28:27;;;;;;;2.38;2.17;;;15.90;99.90;;;;;;5035514;28;20666;-76
2021/08/27 11:31:08;;;;;;;5.03;2.30;;;16.00;99.90;;;;;;5043411;28;20661;-77
2021/08/27 11:33:52;;;;;;;2.45;2.17;;;16.10;99.90;;;;;;5038937;28;20207;-76
2021/08/27 11:36:20;;;;;;;2.97;2.20;;;16.50;99.90;;;;;;5038420;28;20704;-77
2021/08/27 11:38:58;;;;;;;3.58;2.13;;;16.60;99.90;;;;;;5034855;28;20589;-76
2021/08/27 11:41:26;;;;;;;3.55;2.40;;;16.30;99.90;;;;;;5038539;28;20512;-76
2021/08/27 11:44:08;;;;;;;2.60;2.40;;;16.30;99.90;;;;;;5033540;28;20567;-75
2021/08/27 11:46:36;;;;;;;1.92;1.83;;;16.50;99.90;;;;;;5041666;28;20211;-75
2021/08/27 11:49:27;;;;;;;3.90;2.28;;;16.50;99.90;;;;;;5040215;28;20207;-75
2021/08/27 11:52:16;;;;;;;2.08;1.90;;;16.40;99.90;;;;;;5035508;28;20211;-75
2021/08/27 11:54:43;;;;;;;2.72;2.28;;;16.30;99.90;;;;;;5039494;28;20219;-75
2021/08/27 11:57:18;;;;;;;2.90;2.30;;;16.30;99.90;;;;;;5043088;28;20199;-75
2021/08/27 11:59:45;;;;;;;3.50;2.10;;;16.40;99.90;;;;;;5039099;28;20657;-75
2021/08/27 12:02:18;;;;;;;2.10;1.90;;;16.60;99.90;;;;;;5042397;28;20236;-75
2021/08/27 12:04:55;;;;;;;2.40;2.13;;;16.70;99.90;;;;;;5043515;28;20203;-75
2021/08/27 12:07:23;;;;;;;3.60;2.35;;;16.50;99.90;;;;;;5035220;28;20206;-75
2021/08/27 12:10:05;;;;;;;3.22;2.92;;;17.00;99.90;;;;;;5044336;28;20213;-76
2021/08/27 12:12:36;;;;;;;2.63;2.42;;;17.20;99.90;;;;;;5043786;28;20230;-76
2021/08/27 12:15:04;;;;;;;3.38;2.45;;;18.00;99.90;;;;;;5039869;28;20215;-75
2021/08/27 12:17:31;;;;;;;4.80;2.60;;;18.00;99.90;;;;;;5043508;28;20299;-76
2021/08/27 12:20:00;;;;;;;3.75;2.95;;;17.90;99.90;;;;;;5039751;28;20207;-75
2021/08/27 12:22:29;;;;;;;3.00;2.70;;;18.00;99.90;;;;;;5043472;28;20195;-76
2021/08/27 12:24:57;;;;;;;3.95;2.65;;;18.60;99.90;;;;;;5045154;28;20199;-76
2021/08/27 12:27:25;;;;;;;4.15;3.22;;;18.10;99.90;;;;;;5045185;28;20727;-75
2021/08/27 12:30:08;;;;;;;3.00;2.70;;;18.40;99.90;;;;;;5044489;28;20292;-76
2021/08/27 12:32:36;;;;;;;3.15;2.83;;;18.40;99.90;;;;;;5045369;28;20206;-75
2021/08/27 12:35:06;;;;;;;3.50;2.83;;;19.10;99.90;;;;;;5042767;28;20238;-76
2021/08/27 12:37:33;;;;;;;2.50;2.30;;;19.20;99.90;;;;;;5043322;28;20583;-75
2021/08/27 12:40:00;;;;;;;2.28;2.10;;;18.90;99.90;;;;;;5041796;28;20211;-75
2021/08/27 12:42:27;;;;;;;5.18;2.60;;;19.30;99.90;;;;;;5050987;28;20198;-76
2021/08/27 12:44:59;;;;;;;7.85;4.15;;;19.60;99.90;;;;;;5050162;28;20199;-75
2021/08/27 12:47:31;;;;;;;3.33;2.50;;;20.30;99.90;;;;;;5049538;28;20555;-75
2021/08/27 12:49:59;;;;;;;2.95;2.13;;;19.90;99.90;;;;;;5043558;28;20199;-76
2021/08/27 12:52:28;;;;;;;2.45;2.25;;;20.10;99.90;;;;;;5043703;28;20707;-76
2021/08/27 12:54:55;;;;;;;2.30;2.10;;;20.20;99.90;;;;;;5046832;28;20223;-76
2021/08/27 12:57:22;;;;;;;4.40;2.20;;;20.00;99.90;;;;;;5044083;28;20245;-76
2021/08/27 12:59:56;;;;;;;2.80;2.05;;;20.00;99.90;;;;;;5050858;28;20199;-76
2021/08/27 13:02:23;;;;;;;2.33;2.00;;;19.30;99.90;;;;;;5039721;28;20199;-76